sensor_id;sensor_type;location;lat;lon;timestamp;P1;P2;P0
45112;PMS5003;30873;53.908;27.576;2023-01-09T00:04:44;43.2;33.4;20.5
45112;PMS5003;30873;53.908;27.576;2023-01-09T00:09:50;42.6;33.4;20.9
45112;PMS5003;30873;53.908;27.576;2023-01-09T00:14:34;43.1;34.2;20.4
45112;PMS5003;30873;53.908;27.576;2023-01-09T00:20:05;41.6;33.8;20.6
45112;PMS5003;30873;53.908;27.576;2023-01-09T00:25:05;41.6;33.6;19.4
45112;PMS5003;30873;53.908;27.576;2023-01-09T00:29:34;41.4;33.7;20.1
45112;PMS5003;30873;53.908;27.576;2023-01-09T00:34:43;44.4;35.3;20.8
45112;PMS5003;30873;53.908;27.576;2023-01-09T00:39:46;41.4;33.7;19.3
45112;PMS5003;30873;53.908;27.576;2023-01-09T00:45:13;38.4;32.3;18.6
45112;PMS5003;30873;53.908;27.576;2023-01-09T00:49:44;38.4;32.3;18.6
45112;PMS5003;30873;53.908;27.576;2023-01-09T00:54:52;41.3;33.2;18.7
45112;PMS5003;30873;53.908;27.576;2023-01-09T00:59:52;40.6;33.4;19.3
45112;PMS5003;30873;53.908;27.576;2023-01-09T01:05:05;41.2;33.1;19.4
45112;PMS5003;30873;53.908;27.576;2023-01-09T01:10:03;41.3;33.4;20.1
45112;PMS5003;30873;53.908;27.576;2023-01-09T01:15:03;41.9;34;20.3
45112;PMS5003;30873;53.908;27.576;2023-01-09T01:19:34;40.4;32.9;20
45112;PMS5003;30873;53.908;27.576;2023-01-09T01:24:52;39.9;33.3;19.4
45112;PMS5003;30873;53.908;27.576;2023-01-09T01:30:13;39.9;32.4;18.8
45112;PMS5003;30873;53.908;27.576;2023-01-09T01:35:12;38.8;31.1;18.2
45112;PMS5003;30873;53.908;27.576;2023-01-09T01:39:42;38.8;31.1;18.2
45112;PMS5003;30873;53.908;27.576;2023-01-09T01:44:59;37.3;31.1;18.1
45112;PMS5003;30873;53.908;27.576;2023-01-09T01:49:50;39;31.1;18.5
45112;PMS5003;30873;53.908;27.576;2023-01-09T01:54:34;36.9;31;17.8
45112;PMS5003;30873;53.908;27.576;2023-01-09T02:00:03;38.3;30.9;18.1
45112;PMS5003;30873;53.908;27.576;2023-01-09T02:04:55;35.5;30.3;17.7
45112;PMS5003;30873;53.908;27.576;2023-01-09T02:09:52;34;30;17.8
45112;PMS5003;30873;53.908;27.576;2023-01-09T02:15:03;39.2;32.4;19.6
45112;PMS5003;30873;53.908;27.576;2023-01-09T02:20:24;34.5;28.8;17.7
45112;PMS5003;30873;53.908;27.576;2023-01-09T02:25:21;36.3;30.3;18
45112;PMS5003;30873;53.908;27.576;2023-01-09T02:29:51;36.3;30.3;18
45112;PMS5003;30873;53.908;27.576;2023-01-09T02:34:55;35.5;29.8;17.8
45112;PMS5003;30873;53.908;27.576;2023-01-09T02:40:08;37.1;30.7;18.5
45112;PMS5003;30873;53.908;27.576;2023-01-09T02:44:34;36.1;30;17.2
45112;PMS5003;30873;53.908;27.576;2023-01-09T02:50:08;34.7;28.7;17.4
45112;PMS5003;30873;53.908;27.576;2023-01-09T02:55:07;29.9;24.2;13.8
45112;PMS5003;30873;53.908;27.576;2023-01-09T02:59:58;26.8;22;12.3
45112;PMS5003;30873;53.908;27.576;2023-01-09T03:04:56;26.2;20.9;11.9
45112;PMS5003;30873;53.908;27.576;2023-01-09T03:10:15;25.6;19.1;11.2
45112;PMS5003;30873;53.908;27.576;2023-01-09T03:15:16;27.1;22.3;13.5
45112;PMS5003;30873;53.908;27.576;2023-01-09T03:19:44;27.1;22.3;13.5
45112;PMS5003;30873;53.908;27.576;2023-01-09T03:24:54;29;24.3;14.8
45112;PMS5003;30873;53.908;27.576;2023-01-09T03:29:54;34.8;30.2;18.5
45112;PMS5003;30873;53.908;27.576;2023-01-09T03:34:34;40.5;32;20.2
45112;PMS5003;30873;53.908;27.576;2023-01-09T03:40:07;40.8;37.2;22.4
45112;PMS5003;30873;53.908;27.576;2023-01-09T03:44:56;49.2;41.4;27.2
45112;PMS5003;30873;53.908;27.576;2023-01-09T03:49:42;51.5;45;28.5
45112;PMS5003;30873;53.908;27.576;2023-01-09T03:55:03;45.2;39;23.6
45112;PMS5003;30873;53.908;27.576;2023-01-09T04:00:15;50.7;41.8;26.3
45112;PMS5003;30873;53.908;27.576;2023-01-09T04:05:14;42.5;37.9;24
45112;PMS5003;30873;53.908;27.576;2023-01-09T04:09:44;42.5;37.9;24
45112;PMS5003;30873;53.908;27.576;2023-01-09T04:14:54;41.9;34.8;21.3
45112;PMS5003;30873;53.908;27.576;2023-01-09T04:20:05;42.4;36.7;22.9
45112;PMS5003;30873;53.908;27.576;2023-01-09T04:24:34;38;31.9;18.1
45112;PMS5003;30873;53.908;27.576;2023-01-09T04:30:16;36.7;28.4;17.1
45112;PMS5003;30873;53.908;27.576;2023-01-09T04:35:18;34.6;28.8;17.2
45112;PMS5003;30873;53.908;27.576;2023-01-09T04:39:34;34.6;28.8;17.2
45112;PMS5003;30873;53.908;27.576;2023-01-09T04:44:34;37.5;31.4;18
45112;PMS5003;30873;53.908;27.576;2023-01-09T04:49:58;34.5;28.4;17.5
45112;PMS5003;30873;53.908;27.576;2023-01-09T04:55:08;34.6;29.9;17.4
45112;PMS5003;30873;53.908;27.576;2023-01-09T04:59:44;37.2;31.5;17.7
45112;PMS5003;30873;53.908;27.576;2023-01-09T05:05:07;37.5;28;16.6
45112;PMS5003;30873;53.908;27.576;2023-01-09T05:10:05;35.6;28;17.2
45112;PMS5003;30873;53.908;27.576;2023-01-09T05:14:34;38;31.8;18.1
45112;PMS5003;30873;53.908;27.576;2023-01-09T05:20:17;38.5;32.5;18.7
45112;PMS5003;30873;53.908;27.576;2023-01-09T05:25:18;40.4;33.5;19.9
45112;PMS5003;30873;53.908;27.576;2023-01-09T05:29:54;40.4;33.5;19.9
45112;PMS5003;30873;53.908;27.576;2023-01-09T05:34:42;44.7;36.6;22
45112;PMS5003;30873;53.908;27.576;2023-01-09T05:39:36;43.7;36;22.2
45112;PMS5003;30873;53.908;27.576;2023-01-09T05:44:54;41.3;33.6;20.3
45112;PMS5003;30873;53.908;27.576;2023-01-09T05:49:35;51;41.9;25.6
45112;PMS5003;30873;53.908;27.576;2023-01-09T05:54:55;50.4;41.3;26.3
45112;PMS5003;30873;53.908;27.576;2023-01-09T06:00:09;48.3;39.1;22.6
45112;PMS5003;30873;53.908;27.576;2023-01-09T06:04:42;45.2;37.4;23.2
45112;PMS5003;30873;53.908;27.576;2023-01-09T06:10:15;40;34.1;19.4
45112;PMS5003;30873;53.908;27.576;2023-01-09T06:15:15;42.6;36.6;19.9
45112;PMS5003;30873;53.908;27.576;2023-01-09T06:19:54;42.6;36.6;19.9
45112;PMS5003;30873;53.908;27.576;2023-01-09T06:24:44;42.5;34.6;20.4
45112;PMS5003;30873;53.908;27.576;2023-01-09T06:29:57;45.2;36.6;21.4
45112;PMS5003;30873;53.908;27.576;2023-01-09T06:35:08;46.1;36;21.6
45112;PMS5003;30873;53.908;27.576;2023-01-09T06:39:34;42.1;32.5;18.4
45112;PMS5003;30873;53.908;27.576;2023-01-09T06:44:44;45;36.5;21.4
45112;PMS5003;30873;53.908;27.576;2023-01-09T06:50:07;48.9;39;22.9
45112;PMS5003;30873;53.908;27.576;2023-01-09T06:54:34;55.2;40.9;24.6
45112;PMS5003;30873;53.908;27.576;2023-01-09T07:00:19;48.4;36.9;21.5
45112;PMS5003;30873;53.908;27.576;2023-01-09T07:05:18;45.6;37.1;21.2
45112;PMS5003;30873;53.908;27.576;2023-01-09T07:09:52;45.6;37.1;21.2
45112;PMS5003;30873;53.908;27.576;2023-01-09T07:15:07;44.6;37.1;21.2
45112;PMS5003;30873;53.908;27.576;2023-01-09T07:19:36;42.3;34.3;20.4
45112;PMS5003;30873;53.908;27.576;2023-01-09T07:24:56;41.1;34.4;20.6
45112;PMS5003;30873;53.908;27.576;2023-01-09T07:29:54;45.9;37.2;22.3
45112;PMS5003;30873;53.908;27.576;2023-01-09T07:35:18;44.3;37;20.6
45112;PMS5003;30873;53.908;27.576;2023-01-09T07:39:40;44.3;37;20.6
45112;PMS5003;30873;53.908;27.576;2023-01-09T07:44:52;44.6;36.4;21.7
45112;PMS5003;30873;53.908;27.576;2023-01-09T07:50:17;47.4;39.3;23.3
45112;PMS5003;30873;53.908;27.576;2023-01-09T07:55:19;47.1;37.9;22.1
45112;PMS5003;30873;53.908;27.576;2023-01-09T07:59:35;47.1;37.9;22.1
45112;PMS5003;30873;53.908;27.576;2023-01-09T08:04:56;45.5;37.7;20.9
45112;PMS5003;30873;53.908;27.576;2023-01-09T08:10:07;43.9;36.4;21.2
45112;PMS5003;30873;53.908;27.576;2023-01-09T08:14:56;49.6;38.3;23.4
45112;PMS5003;30873;53.908;27.576;2023-01-09T08:20:21;50.5;39.8;23.5
45112;PMS5003;30873;53.908;27.576;2023-01-09T08:24:44;50.5;39.8;23.5
45112;PMS5003;30873;53.908;27.576;2023-01-09T08:30:11;56.3;44.1;27.6
45112;PMS5003;30873;53.908;27.576;2023-01-09T08:34:44;52.9;42.1;26.7
45112;PMS5003;30873;53.908;27.576;2023-01-09T08:40:21;54.3;40.8;26.1
45112;PMS5003;30873;53.908;27.576;2023-01-09T08:45:18;53.6;40.9;25.3
45112;PMS5003;30873;53.908;27.576;2023-01-09T08:49:54;53.6;40.9;25.3
45112;PMS5003;30873;53.908;27.576;2023-01-09T08:55:19;54.8;43.2;27.5
45112;PMS5003;30873;53.908;27.576;2023-01-09T09:00:19;53.6;40.2;25.2
45112;PMS5003;30873;53.908;27.576;2023-01-09T09:05:17;53.8;42.6;25.3
45112;PMS5003;30873;53.908;27.576;2023-01-09T09:09:35;53.8;42.6;25.3
45112;PMS5003;30873;53.908;27.576;2023-01-09T09:14:57;51.7;39.4;24.5
45112;PMS5003;30873;53.908;27.576;2023-01-09T09:20:07;52.7;41.4;25.9
45112;PMS5003;30873;53.908;27.576;2023-01-09T09:24:37;51.5;39.7;24.4
45112;PMS5003;30873;53.908;27.576;2023-01-09T09:30:17;47;36.2;22.2
45112;PMS5003;30873;53.908;27.576;2023-01-09T09:35:09;47;36.2;22.2
45112;PMS5003;30873;53.908;27.576;2023-01-09T09:39:53;47.5;36.9;22.4
45112;PMS5003;30873;53.908;27.576;2023-01-09T09:44:50;46.5;35.6;21.9
45112;PMS5003;30873;53.908;27.576;2023-01-09T09:50:20;46.3;36.3;22.5
45112;PMS5003;30873;53.908;27.576;2023-01-09T09:55:20;48.9;38.7;23.6
45112;PMS5003;30873;53.908;27.576;2023-01-09T10:00:09;48.9;38.7;23.6
45112;PMS5003;30873;53.908;27.576;2023-01-09T10:05:11;48.8;38.2;23.6
45112;PMS5003;30873;53.908;27.576;2023-01-09T10:10:08;52.1;39.7;25
45112;PMS5003;30873;53.908;27.576;2023-01-09T10:15:17;42.2;35.1;22.6
45112;PMS5003;30873;53.908;27.576;2023-01-09T10:20:27;43.8;35.2;21.9
45112;PMS5003;30873;53.908;27.576;2023-01-09T10:24:39;43.8;35.2;21.9
45112;PMS5003;30873;53.908;27.576;2023-01-09T10:29:37;45;35.4;22.8
45112;PMS5003;30873;53.908;27.576;2023-01-09T10:34:48;47.3;37.3;23.2
45112;PMS5003;30873;53.908;27.576;2023-01-09T10:40:19;46.7;36.4;22.6
45112;PMS5003;30873;53.908;27.576;2023-01-09T10:45:20;45.7;35.8;22.8
45112;PMS5003;30873;53.908;27.576;2023-01-09T10:49:47;45.7;35.8;22.8
45112;PMS5003;30873;53.908;27.576;2023-01-09T10:54:55;45.4;35.4;22.4
45112;PMS5003;30873;53.908;27.576;2023-01-09T11:00:12;45;35.8;22.3
45112;PMS5003;30873;53.908;27.576;2023-01-09T11:05:16;42.7;34.4;21.8
45112;PMS5003;30873;53.908;27.576;2023-01-09T11:10:17;42.8;34.6;21.7
45112;PMS5003;30873;53.908;27.576;2023-01-09T11:15:04;42.8;34.6;21.7
45112;PMS5003;30873;53.908;27.576;2023-01-09T11:20:00;42.8;33.8;20.7
45112;PMS5003;30873;53.908;27.576;2023-01-09T11:24:35;43;34.8;21.6
45112;PMS5003;30873;53.908;27.576;2023-01-09T11:30:15;41.9;33.7;21.6
45112;PMS5003;30873;53.908;27.576;2023-01-09T11:35:14;43.1;34.1;21.1
45112;PMS5003;30873;53.908;27.576;2023-01-09T11:39:47;45.1;35.7;22.6
45112;PMS5003;30873;53.908;27.576;2023-01-09T11:44:57;46.1;36.4;23.3
45112;PMS5003;30873;53.908;27.576;2023-01-09T11:50:15;48.1;38.1;23.8
45112;PMS5003;30873;53.908;27.576;2023-01-09T11:55:23;43.6;34.9;22.3
45112;PMS5003;30873;53.908;27.576;2023-01-09T11:59:45;43.6;34.9;22.3
45112;PMS5003;30873;53.908;27.576;2023-01-09T12:04:57;45.9;36.8;24.1
45112;PMS5003;30873;53.908;27.576;2023-01-09T12:09:55;44;35.9;23
45112;PMS5003;30873;53.908;27.576;2023-01-09T12:14:38;41.1;33.8;21.2
45112;PMS5003;30873;53.908;27.576;2023-01-09T12:20:22;38.6;32.1;19.9
45112;PMS5003;30873;53.908;27.576;2023-01-09T12:25:22;41.2;33.3;20.6
45112;PMS5003;30873;53.908;27.576;2023-01-09T12:29:39;41.2;33.3;20.6
45112;PMS5003;30873;53.908;27.576;2023-01-09T12:35:06;38.8;32.1;20.2
45112;PMS5003;30873;53.908;27.576;2023-01-09T12:39:38;44.1;34.8;22.4
45112;PMS5003;30873;53.908;27.576;2023-01-09T12:45:27;41.6;34.5;21.8
45112;PMS5003;30873;53.908;27.576;2023-01-09T12:50:26;40.6;33.4;21.1
45112;PMS5003;30873;53.908;27.576;2023-01-09T12:54:57;40.6;33.4;21.1
45112;PMS5003;30873;53.908;27.576;2023-01-09T13:00:10;40.5;32.4;19.6
45112;PMS5003;30873;53.908;27.576;2023-01-09T13:04:48;37.8;32.8;19.8
45112;PMS5003;30873;53.908;27.576;2023-01-09T13:10:18;37.7;30.8;18.7
45112;PMS5003;30873;53.908;27.576;2023-01-09T13:15:23;36.1;30.6;19.1
45112;PMS5003;30873;53.908;27.576;2023-01-09T13:19:47;36.1;30.6;19.1
45112;PMS5003;30873;53.908;27.576;2023-01-09T13:25:15;36.1;31.2;19.3
45112;PMS5003;30873;53.908;27.576;2023-01-09T13:30:07;33.6;28.5;17.9
45112;PMS5003;30873;53.908;27.576;2023-01-09T13:35:19;32.7;26.9;16.8
45112;PMS5003;30873;53.908;27.576;2023-01-09T13:39:35;32.7;26.9;16.8
45112;PMS5003;30873;53.908;27.576;2023-01-09T13:44:35;32.7;27;16.5
45112;PMS5003;30873;53.908;27.576;2023-01-09T13:50:04;30.8;26.7;16.5
45112;PMS5003;30873;53.908;27.576;2023-01-09T14:01:49;30.5;27.2;17.1
45112;PMS5003;30873;53.908;27.576;2023-01-09T14:04:55;30.5;26.5;16.5
45112;PMS5003;30873;53.908;27.576;2023-01-09T14:09:35;27.3;24.2;15.4
45112;PMS5003;30873;53.908;27.576;2023-01-09T14:15:19;28.8;24.5;15.6
45112;PMS5003;30873;53.908;27.576;2023-01-09T14:20:16;33.5;27.7;17.3
45112;PMS5003;30873;53.908;27.576;2023-01-09T14:25:18;29.5;25.1;16
45112;PMS5003;30873;53.908;27.576;2023-01-09T14:29:35;29.5;25.1;16
45112;PMS5003;30873;53.908;27.576;2023-01-09T14:34:57;29.6;26;16.2
45112;PMS5003;30873;53.908;27.576;2023-01-09T14:39:53;24.9;22.1;14.2
45112;PMS5003;30873;53.908;27.576;2023-01-09T14:44:39;28.4;24.7;15.9
45112;PMS5003;30873;53.908;27.576;2023-01-09T14:50:21;29.3;24.6;15.6
45112;PMS5003;30873;53.908;27.576;2023-01-09T14:54:43;29.3;24.6;15.6
45112;PMS5003;30873;53.908;27.576;2023-01-09T14:59:35;29;24.4;16
45112;PMS5003;30873;53.908;27.576;2023-01-09T15:04:37;28.3;25.3;16.6
45112;PMS5003;30873;53.908;27.576;2023-01-09T15:10:10;28.9;25.3;16.5
45112;PMS5003;30873;53.908;27.576;2023-01-09T15:15:19;29.1;24.1;15.7
45112;PMS5003;30873;53.908;27.576;2023-01-09T15:19:45;29.1;24.1;15.7
45112;PMS5003;30873;53.908;27.576;2023-01-09T15:25:14;31.3;25.3;15.9
45112;PMS5003;30873;53.908;27.576;2023-01-09T15:29:57;30.4;26.7;16.7
45112;PMS5003;30873;53.908;27.576;2023-01-09T15:34:57;28.9;25.2;16.7
45112;PMS5003;30873;53.908;27.576;2023-01-09T15:40:18;27.7;23.8;16.2
45112;PMS5003;30873;53.908;27.576;2023-01-09T15:44:36;27.7;23.8;16.2
45112;PMS5003;30873;53.908;27.576;2023-01-09T15:49:35;27.2;24.1;15.5
45112;PMS5003;30873;53.908;27.576;2023-01-09T15:55:40;28;23.3;14.9
45112;PMS5003;30873;53.908;27.576;2023-01-09T16:00:32;26.4;23.2;14.6
45112;PMS5003;30873;53.908;27.576;2023-01-09T16:05:19;26.9;22.9;14.5
45112;PMS5003;30873;53.908;27.576;2023-01-09T16:09:35;26.9;22.9;14.5
45112;PMS5003;30873;53.908;27.576;2023-01-09T16:14:47;25.6;21.4;13.6
45112;PMS5003;30873;53.908;27.576;2023-01-09T16:19:53;27;24.2;15.1
45112;PMS5003;30873;53.908;27.576;2023-01-09T16:24:37;24.8;21.9;14.7
45112;PMS5003;30873;53.908;27.576;2023-01-09T16:30:21;28.3;23.7;15.2
45112;PMS5003;30873;53.908;27.576;2023-01-09T16:34:55;28.3;23.7;15.2
45112;PMS5003;30873;53.908;27.576;2023-01-09T16:39:47;28.7;23.8;15.6
45112;PMS5003;30873;53.908;27.576;2023-01-09T16:45:07;27.2;23.8;15.8
45112;PMS5003;30873;53.908;27.576;2023-01-09T16:50:07;27.5;24.6;15.4
45112;PMS5003;30873;53.908;27.576;2023-01-09T16:55:19;28.7;24.7;15.7
45112;PMS5003;30873;53.908;27.576;2023-01-09T16:59:55;28.7;24.7;15.7
45112;PMS5003;30873;53.908;27.576;2023-01-09T17:04:45;27.6;24.6;15.4
45112;PMS5003;30873;53.908;27.576;2023-01-09T17:09:57;25.2;23.4;14.8
45112;PMS5003;30873;53.908;27.576;2023-01-09T17:14:35;26.1;22.1;14
45112;PMS5003;30873;53.908;27.576;2023-01-09T17:20:19;27.3;22.6;14.1
45112;PMS5003;30873;53.908;27.576;2023-01-09T17:24:49;27.3;22.6;14.1
45112;PMS5003;30873;53.908;27.576;2023-01-09T17:30:21;23.5;20;13.2
45112;PMS5003;30873;53.908;27.576;2023-01-09T17:35:21;22.3;19.7;13.1
45112;PMS5003;30873;53.908;27.576;2023-01-09T17:40:11;22.3;19.7;13.1
45112;PMS5003;30873;53.908;27.576;2023-01-09T17:45:07;22.1;18.5;12.7
45112;PMS5003;30873;53.908;27.576;2023-01-09T17:49:35;20.4;17.5;11.8
45112;PMS5003;30873;53.908;27.576;2023-01-09T17:55:17;23.6;19.4;12.8
45112;PMS5003;30873;53.908;27.576;2023-01-09T18:00:21;21.8;19.5;12.8
45112;PMS5003;30873;53.908;27.576;2023-01-09T18:04:47;21.8;19.5;12.8
45112;PMS5003;30873;53.908;27.576;2023-01-09T18:09:57;19.8;17.6;12.2
45112;PMS5003;30873;53.908;27.576;2023-01-09T18:15:09;21;18.3;12.1
45112;PMS5003;30873;53.908;27.576;2023-01-09T18:20:19;19.3;16.8;10.9
45112;PMS5003;30873;53.908;27.576;2023-01-09T18:25:21;20.4;17.6;11.3
45112;PMS5003;30873;53.908;27.576;2023-01-09T18:30:09;20.4;17.6;11.3
45112;PMS5003;30873;53.908;27.576;2023-01-09T18:35:09;21.1;18.1;12.2
45112;PMS5003;30873;53.908;27.576;2023-01-09T18:39:35;21.2;18.9;12.4
45112;PMS5003;30873;53.908;27.576;2023-01-09T18:45:19;26.7;23.4;16.3
45112;PMS5003;30873;53.908;27.576;2023-01-09T18:50:17;24.3;20.6;13.6
45112;PMS5003;30873;53.908;27.576;2023-01-09T18:54:49;24.3;20.6;13.6
45112;PMS5003;30873;53.908;27.576;2023-01-09T18:59:35;22.4;19.9;13.7
45112;PMS5003;30873;53.908;27.576;2023-01-09T19:04:45;24.3;21.1;13.8
45112;PMS5003;30873;53.908;27.576;2023-01-09T19:10:19;23;19.6;13.8
45112;PMS5003;30873;53.908;27.576;2023-01-09T19:15:19;24.4;20.7;13.6
45112;PMS5003;30873;53.908;27.576;2023-01-09T19:20:09;24.4;20.7;13.6
45112;PMS5003;30873;53.908;27.576;2023-01-09T19:25:09;24.2;21.3;13.9
45112;PMS5003;30873;53.908;27.576;2023-01-09T19:29:47;25.7;22.2;14.7
45112;PMS5003;30873;53.908;27.576;2023-01-09T19:34:51;26.1;21.5;14.4
45112;PMS5003;30873;53.908;27.576;2023-01-09T19:40:07;26;23.4;15
45112;PMS5003;30873;53.908;27.576;2023-01-09T19:44:47;24.8;21.7;14.1
45112;PMS5003;30873;53.908;27.576;2023-01-09T19:49:57;24.7;20.9;14.4
45112;PMS5003;30873;53.908;27.576;2023-01-09T19:54:48;27.1;23.4;15
45112;PMS5003;30873;53.908;27.576;2023-01-09T20:00:21;28.8;24.8;16.2
45112;PMS5003;30873;53.908;27.576;2023-01-09T20:05:21;43;36.1;26.6
45112;PMS5003;30873;53.908;27.576;2023-01-09T20:10:11;43;36.1;26.6
45112;PMS5003;30873;53.908;27.576;2023-01-09T20:15:09;37.1;32.2;21.9
45112;PMS5003;30873;53.908;27.576;2023-01-09T20:19:35;39.3;34.4;23.8
45112;PMS5003;30873;53.908;27.576;2023-01-09T20:25:19;40.3;34.4;24.1
45112;PMS5003;30873;53.908;27.576;2023-01-09T20:30:21;38.7;33.7;23.1
45112;PMS5003;30873;53.908;27.576;2023-01-09T20:34:47;38.7;33.7;23.1
45112;PMS5003;30873;53.908;27.576;2023-01-09T20:39:47;38.2;33.4;23.2
45112;PMS5003;30873;53.908;27.576;2023-01-09T20:44:57;44.4;37.6;27.4
45112;PMS5003;30873;53.908;27.576;2023-01-09T20:50:19;43.9;37.5;27.7
45112;PMS5003;30873;53.908;27.576;2023-01-09T20:55:21;43.2;36.6;26.2
45112;PMS5003;30873;53.908;27.576;2023-01-09T21:00:11;43.2;36.6;26.2
45112;PMS5003;30873;53.908;27.576;2023-01-09T21:05:07;42.2;36;26.2
45112;PMS5003;30873;53.908;27.576;2023-01-09T21:09:47;36;31.3;21.9
45112;PMS5003;30873;53.908;27.576;2023-01-09T21:15:21;61.1;46.8;30.1
45112;PMS5003;30873;53.908;27.576;2023-01-09T21:20:21;85.7;70.3;40.2
45112;PMS5003;30873;53.908;27.576;2023-01-09T21:24:47;85.7;70.3;40.2
45112;PMS5003;30873;53.908;27.576;2023-01-09T21:30:09;93.3;75.1;42.6
45112;PMS5003;30873;53.908;27.576;2023-01-09T21:34:57;57.6;44.6;27.1
45112;PMS5003;30873;53.908;27.576;2023-01-09T21:40:21;61.1;45.7;27.8
45112;PMS5003;30873;53.908;27.576;2023-01-09T21:45:23;42.1;33.6;21.2
45112;PMS5003;30873;53.908;27.576;2023-01-09T21:50:01;42.1;33.6;21.2
45112;PMS5003;30873;53.908;27.576;2023-01-09T21:55:09;39.6;33.3;22.4
45112;PMS5003;30873;53.908;27.576;2023-01-09T21:59:57;45;39.4;30.8
45112;PMS5003;30873;53.908;27.576;2023-01-09T22:04:51;37.7;31;22.7
45112;PMS5003;30873;53.908;27.576;2023-01-09T22:10:17;33.5;28.6;19.8
45112;PMS5003;30873;53.908;27.576;2023-01-09T22:14:57;33.5;28.6;19.8
45112;PMS5003;30873;53.908;27.576;2023-01-09T22:19:57;30.5;26.6;18.5
45112;PMS5003;30873;53.908;27.576;2023-01-09T22:24:55;38.1;31.6;23.9
45112;PMS5003;30873;53.908;27.576;2023-01-09T22:30:21;23.7;22.3;14.7
45112;PMS5003;30873;53.908;27.576;2023-01-09T22:35:19;29.3;25.2;17.4
45112;PMS5003;30873;53.908;27.576;2023-01-09T22:40:09;29.3;25.2;17.4
45112;PMS5003;30873;53.908;27.576;2023-01-09T22:45:07;29.5;27.5;19.4
45112;PMS5003;30873;53.908;27.576;2023-01-09T22:49:35;28.3;25.3;17.2
45112;PMS5003;30873;53.908;27.576;2023-01-09T22:55:17;33.9;29.7;21.7
45112;PMS5003;30873;53.908;27.576;2023-01-09T23:00:17;34.6;30;22.4
45112;PMS5003;30873;53.908;27.576;2023-01-09T23:04:43;34.6;30;22.4
45112;PMS5003;30873;53.908;27.576;2023-01-09T23:10:03;35.9;31.6;24.1
45112;PMS5003;30873;53.908;27.576;2023-01-09T23:14:45;45;37.5;29.2
45112;PMS5003;30873;53.908;27.576;2023-01-09T23:20:15;24.9;21.8;15.1
45112;PMS5003;30873;53.908;27.576;2023-01-09T23:25:15;21.1;19.1;11.7
45112;PMS5003;30873;53.908;27.576;2023-01-09T23:30:07;21.1;19.1;11.7
45112;PMS5003;30873;53.908;27.576;2023-01-09T23:35:03;20.5;17.7;10.6
45112;PMS5003;30873;53.908;27.576;2023-01-09T23:40:15;18.9;16.7;10.3
45112;PMS5003;30873;53.908;27.576;2023-01-09T23:45:13;20.4;18;10.9
45112;PMS5003;30873;53.908;27.576;2023-01-09T23:50:17;19.6;18;11
45112;PMS5003;30873;53.908;27.576;2023-01-09T23:54:35;19.6;18;11
45112;PMS5003;30873;53.908;27.576;2023-01-09T23:59:55;19.5;17.5;10.8
